ADDS METAR Data INFO
IDs: Format: Raw Decoded Include TAF

Data at: 0352 UTC 20 Feb 2018

KRME 200305Z AUTO 10009KT 10SM -RA BKN025 OVC031 05/04 A3017 RMK AO2 P0000 T00500044
KRME 200253Z AUTO 09010KT 10SM -RA OVC030 05/04 A3017 RMK AO2 SLP220 P0002 60016 T00500039 55002
KRME 200153Z 11008KT 9SM -RA SCT026 OVC034 03/03 A3017 RMK AO2 SLP218 P0003 T00330033
KRME 200139Z 10008KT 8SM -RA FEW017 BKN026 OVC034 04/03 A3017 RMK AO2 P0003 T00390033
KRME 200131Z 09009KT 10SM -RA SCT021 BKN031 OVC040 04/03 A3017 RMK AO2 P0003 T00440033
KRME 200053Z 09009KT 6SM RA BR OVC017 04/03 A3018 RMK AO2 SLP223 P0011 T00390033
KRME 192353Z 09008KT 5SM RA BR OVC018 04/03 A3022 RMK AO2 SLP236 P0009 60040 T00390033 10056 20028 55001
KRME 192253Z 10008KT 7SM -RA OVC021 03/03 A3021 RMK AO2 SLP234 P0003 T00330028
KRME 192153Z 11007KT 3SM RA BR OVC016 03/03 A3020 RMK AO2 SLP231 P0009 T00330028
KRME 192053Z 10007KT 4SM -RA BR OVC018 03/02 A3022 RMK AO2 SLP237 P0011 60019 T00280022 55004
KRME 192034Z 10007KT 2 1/2SM RA BR OVC020 03/02 A3023 RMK AO2 P0009 T00330022
KRME 192020Z 10007KT 1 3/4SM +RA BR OVC022 03/02 A3023 RMK AO2 P0006 T00280022
KRME 192010Z 11006KT 3SM RA BR OVC022 03/02 A3023 RMK AO2 P0004 T00330017
KRME 192002Z 10004KT 2 1/2SM +RA BR OVC024 03/02 A3022 RMK AO2 P0003 T00280017
KRME 191953Z 11007KT 3SM +RA BR OVC025 03/02 A3021 RMK AO2 SLP235 P0008 T00280017
KRME 191925Z 11006KT 7SM -RA OVC029 04/01 A3022 RMK AO2 P0002 T00390006
KRME 191853Z 12007KT 10SM -RA OVC034 04/M01 A3023 RMK AO2 RAE03B48 SLP240 P0000 T00441006
KRME 191753Z 16010KT 10SM -RA BKN034 OVC065 06/M01 A3023 RMK AO2 RAB37 SLP240 P0000 60000 T00561006 10056 21039 58029
KRME 191653Z 15009KT 10SM SCT090 06/M01 A3027 RMK AO2 SLP256 T00561011
KRME 191553Z 11009KT 10SM SCT100 04/M02 A3030 RMK AO2 SLP266 T00441022
KRME 191453Z 10006KT 10SM CLR 03/M03 A3032 RMK AO2 SLP272 T00331033 58013
KRME 191353Z 11007KT 10SM CLR 00/M06 A3035 RMK AO2 SLP281 T00001056
KRME 191253Z 13006KT 10SM CLR M02/M07 A3037 RMK AO2 SLP289 T10221067
KRME 191153Z 13006KT 10SM CLR M04/M07 A3036 RMK AO2 SLP284 T10441072 11022 21044 55006
KRME 191053Z AUTO 11010KT 10SM CLR M02/M07 A3035 RMK AO2 SLP282 T10221067
KRME 190953Z AUTO 12010KT 10SM CLR M03/M07 A3037 RMK AO2 SLP289 T10281067
KRME 190853Z AUTO 11006KT 10SM CLR M03/M07 A3037 RMK AO2 SLP290 T10281072 55005
KRME 190753Z AUTO 11007KT 10SM CLR M03/M07 A3037 RMK AO2 SLP287 T10331072
KRME 190653Z AUTO 10008KT 10SM CLR M02/M07 A3038 RMK AO2 SLP290 T10221072
KRME 190553Z AUTO 11008KT 10SM CLR M03/M07 A3039 RMK AO2 SLP296 T10281072 11006 21056 58015
KRME 190453Z AUTO 11007KT 10SM CLR M04/M07 A3041 RMK AO2 SLP303 T10391067 400171056
KRME 190353Z AUTO 11007KT 10SM CLR M04/M07 A3043 RMK AO2 SLP311 T10391067
KRME 190253Z AUTO 12005KT 10SM CLR M06/M07 A3043 RMK AO2 SLP312 T10561072 58008
KRME 190153Z 08004KT 10SM CLR M02/M06 A3044 RMK AO2 SLP312 T10171056
KRME 190053Z 08003KT 10SM FEW046 M02/M04 A3046 RMK AO2 SLP320 T10221044
KRME 182353Z 00000KT 10SM OVC045 M01/M03 A3046 RMK AO2 SLP319 T10061033 10017 21006 53030
KRME 182253Z 00000KT 10SM OVC045 00/M04 A3042 RMK AO2 SLP304 T00001039
KRME 182153Z 28005KT 10SM OVC041 02/M05 A3040 RMK AO2 SLP298 T00171050
KRME 182053Z 25006KT 10SM OVC042 02/M04 A3037 RMK AO2 SLP287 T00171044 53010
KRME 181953Z 26007KT 10SM FEW028 FEW032 BKN050 02/M04 A3036 RMK AO2 SLP284 T00171039
KRME 181853Z 27008KT 10SM FEW032 OVC040 01/M03 A3034 RMK AO2 SLP278 T00111033
KRME 181753Z 24009KT 10SM FEW020 OVC044 01/M03 A3034 RMK AO2 SLP277 60000 T00061028 10006 21017 53010
KRME 181653Z 27008KT 7SM FEW015 FEW021 OVC032 M01/M02 A3032 RMK AO2 UPE02SNB02E42 SLP271 P0000 T10061022
KRME 181651Z 28008KT 7SM FEW015 SCT023 OVC032 M01/M02 A3032 RMK AO2 UPE02SNB02E42 P0000
KRME 181553Z 29010KT 6SM UP BR OVC016 M01/M03 A3031 RMK AO2 UPB46 SLP266 P0000 T10061028